createdAt,value
2022-12-27T00:00:02.200Z,4.40
2022-12-27T00:01:02.229Z,4.00
2022-12-27T00:02:02.157Z,4.30
2022-12-27T00:03:02.168Z,3.90
2022-12-27T00:04:02.115Z,3.80
2022-12-27T00:05:02.166Z,4.40
2022-12-27T00:06:02.095Z,3.60
2022-12-27T00:07:02.107Z,4.50
2022-12-27T00:08:02.096Z,4.10
2022-12-27T00:09:02.076Z,3.70
2022-12-27T00:10:02.091Z,4.00
2022-12-27T00:11:02.040Z,4.40
2022-12-27T00:12:02.073Z,4.00
2022-12-27T00:13:02.000Z,4.20
2022-12-27T00:14:02.036Z,4.20
2022-12-27T00:15:02.010Z,4.00
2022-12-27T00:16:02.026Z,4.10
2022-12-27T00:17:01.995Z,4.00
2022-12-27T00:18:01.941Z,4.70
2022-12-27T00:19:01.964Z,4.30
2022-12-27T00:20:06.849Z,4.20
2022-12-27T00:21:02.913Z,4.20
2022-12-27T00:22:01.894Z,4.60
2022-12-27T00:23:01.889Z,4.40
2022-12-27T00:24:01.897Z,4.10
2022-12-27T00:25:01.906Z,4.20
2022-12-27T00:26:01.865Z,4.10
2022-12-27T00:27:01.836Z,4.30
2022-12-27T00:28:01.876Z,3.70
2022-12-27T00:29:01.836Z,4.20
2022-12-27T00:30:01.825Z,4.20
2022-12-27T00:31:01.840Z,3.90
2022-12-27T00:32:01.868Z,3.90
2022-12-27T00:33:01.765Z,3.30
2022-12-27T00:34:01.786Z,3.50
2022-12-27T00:35:01.758Z,3.40
2022-12-27T00:36:01.787Z,3.50
2022-12-27T00:37:01.845Z,3.20
2022-12-27T00:38:01.750Z,3.20
2022-12-27T00:39:01.724Z,3.00
2022-12-27T00:40:01.719Z,2.60
2022-12-27T00:41:01.692Z,2.40
2022-12-27T00:42:01.673Z,2.50
2022-12-27T00:43:01.699Z,2.70
2022-12-27T00:44:01.681Z,2.20
2022-12-27T00:45:01.655Z,2.80
2022-12-27T00:46:01.710Z,2.80
2022-12-27T00:47:01.606Z,2.20
2022-12-27T00:48:01.655Z,2.00
2022-12-27T00:49:01.622Z,2.50
2022-12-27T00:50:01.634Z,2.10
2022-12-27T00:51:01.593Z,1.90
2022-12-27T00:52:01.560Z,2.30
2022-12-27T00:53:01.602Z,2.30
2022-12-27T00:54:01.555Z,2.10
2022-12-27T00:55:01.539Z,2.00
2022-12-27T00:56:01.539Z,1.90
2022-12-27T00:57:01.517Z,2.00
2022-12-27T00:58:01.508Z,2.00
2022-12-27T00:59:01.511Z,2.20
2022-12-27T01:00:07.861Z,1.70
2022-12-27T01:01:02.515Z,2.20
2022-12-27T01:02:01.537Z,1.80
2022-12-27T01:03:01.611Z,1.90
2022-12-27T01:04:01.466Z,1.50
2022-12-27T01:05:01.432Z,2.10
2022-12-27T01:06:01.394Z,2.10
2022-12-27T01:07:01.407Z,2.20
2022-12-27T01:08:01.395Z,2.00
2022-12-27T01:09:01.406Z,1.80
2022-12-27T01:10:01.384Z,2.20
2022-12-27T01:11:01.366Z,1.70
2022-12-27T01:12:01.316Z,1.80
2022-12-27T01:13:01.337Z,1.60
2022-12-27T01:14:01.299Z,1.90
2022-12-27T01:15:01.309Z,1.50
2022-12-27T01:16:01.293Z,2.00
2022-12-27T01:17:01.386Z,1.50
2022-12-27T01:18:01.269Z,1.80
2022-12-27T01:19:01.264Z,1.80
2022-12-27T01:20:01.226Z,1.50
2022-12-27T01:21:01.257Z,1.80
2022-12-27T01:22:01.213Z,1.80
2022-12-27T01:23:01.218Z,1.70
2022-12-27T01:24:01.194Z,2.00
2022-12-27T01:25:01.195Z,1.60
2022-12-27T01:26:01.167Z,1.90
2022-12-27T01:27:01.202Z,1.70
2022-12-27T01:28:01.201Z,1.90
2022-12-27T01:29:01.128Z,1.80
2022-12-27T01:30:01.132Z,1.90
2022-12-27T01:31:01.116Z,1.70
2022-12-27T01:32:01.132Z,1.70
2022-12-27T01:33:01.096Z,1.70
2022-12-27T01:34:01.217Z,1.90
2022-12-27T01:35:01.051Z,1.70
2022-12-27T01:36:01.073Z,1.70
2022-12-27T01:37:01.040Z,1.80
2022-12-27T01:38:01.031Z,1.80
2022-12-27T01:39:01.035Z,1.90
2022-12-27T01:40:01.047Z,2.10
2022-12-27T01:41:01.005Z,1.80
2022-12-27T01:42:01.014Z,2.20
2022-12-27T01:43:00.961Z,2.10
2022-12-27T01:44:00.983Z,1.60
2022-12-27T01:45:00.964Z,2.00
2022-12-27T01:46:00.960Z,1.90
2022-12-27T01:47:00.983Z,1.60
2022-12-27T01:48:00.913Z,2.10
2022-12-27T01:49:03.307Z,2.20
2022-12-27T01:50:00.895Z,2.50
2022-12-27T01:51:00.884Z,2.00
2022-12-27T01:52:00.900Z,2.00
2022-12-27T01:53:00.927Z,1.90
2022-12-27T01:54:00.837Z,1.60
2022-12-27T01:55:00.860Z,2.50
2022-12-27T01:56:00.833Z,2.10
2022-12-27T01:57:00.810Z,2.40
2022-12-27T01:58:00.834Z,2.30
2022-12-27T01:59:00.804Z,1.70
2022-12-27T02:00:00.811Z,2.10
2022-12-27T02:01:00.776Z,1.90
2022-12-27T02:02:00.918Z,2.40
2022-12-27T02:03:00.792Z,2.00
2022-12-27T02:04:00.715Z,2.20
2022-12-27T02:05:00.747Z,2.30
2022-12-27T02:06:00.739Z,1.80
2022-12-27T02:07:00.703Z,2.20
2022-12-27T02:08:00.697Z,1.80
2022-12-27T02:09:00.670Z,2.30
2022-12-27T02:10:00.704Z,1.90
2022-12-27T02:11:00.645Z,2.00
2022-12-27T02:12:00.658Z,2.00
2022-12-27T02:13:00.642Z,2.40
2022-12-27T02:14:00.597Z,2.30
2022-12-27T02:15:00.618Z,2.20
2022-12-27T02:16:00.623Z,2.10
2022-12-27T02:17:00.637Z,2.90
2022-12-27T02:18:00.592Z,2.60
2022-12-27T02:19:00.553Z,2.00
2022-12-27T02:20:00.556Z,2.30
2022-12-27T02:21:00.573Z,2.60
2022-12-27T02:22:00.552Z,2.40
2022-12-27T02:23:00.510Z,2.20
2022-12-27T02:24:00.503Z,2.30
2022-12-27T02:25:00.507Z,2.00
2022-12-27T02:26:00.479Z,2.50
2022-12-27T02:27:00.471Z,2.40
2022-12-27T02:28:00.487Z,2.30
2022-12-27T02:29:00.443Z,2.10
2022-12-27T02:30:00.453Z,2.20
2022-12-27T02:31:00.501Z,2.10
2022-12-27T02:32:00.400Z,2.50
2022-12-27T02:33:00.390Z,2.40
2022-12-27T02:34:00.432Z,2.20
2022-12-27T02:35:00.393Z,1.90
2022-12-27T02:36:00.380Z,2.20
2022-12-27T02:37:00.334Z,2.30
2022-12-27T02:38:00.343Z,1.90
2022-12-27T02:39:00.356Z,2.60
2022-12-27T02:40:00.335Z,2.70
2022-12-27T02:41:00.310Z,2.30
2022-12-27T02:42:00.272Z,2.10
2022-12-27T02:43:00.264Z,1.70
2022-12-27T02:44:00.274Z,2.10
2022-12-27T02:45:00.276Z,1.80
2022-12-27T02:46:00.322Z,1.80
2022-12-27T02:47:00.236Z,2.40
2022-12-27T02:48:00.237Z,2.30
2022-12-27T02:49:00.195Z,2.30
2022-12-27T02:50:00.238Z,2.60
2022-12-27T02:51:00.176Z,1.90
2022-12-27T02:52:00.191Z,2.00
2022-12-27T02:53:00.155Z,2.20
2022-12-27T02:54:00.139Z,1.80
2022-12-27T02:55:00.164Z,1.80
2022-12-27T02:56:00.129Z,2.20
2022-12-27T02:57:00.149Z,1.80
2022-12-27T02:58:00.105Z,2.00
2022-12-27T02:59:00.128Z,1.70
2022-12-27T03:00:00.095Z,1.70
2022-12-27T03:01:00.111Z,1.80
2022-12-27T03:02:00.157Z,1.90
2022-12-27T03:03:00.075Z,1.70
2022-12-27T03:04:00.047Z,2.30
2022-12-27T03:05:00.020Z,1.60
2022-12-27T03:06:00.028Z,1.70
2022-12-27T03:07:00.001Z,1.50
2022-12-27T03:08:00.022Z,1.60
2022-12-27T03:08:59.956Z,1.80
2022-12-27T03:09:59.983Z,2.00
2022-12-27T03:10:59.968Z,1.80
2022-12-27T03:11:59.928Z,1.80
2022-12-27T03:12:59.937Z,1.50
2022-12-27T03:13:59.941Z,1.50
2022-12-27T03:14:59.912Z,2.00
2022-12-27T03:15:59.963Z,1.60
2022-12-27T03:16:59.884Z,1.80
2022-12-27T03:17:59.859Z,1.80
2022-12-27T03:18:59.901Z,1.70
2022-12-27T03:19:59.856Z,1.20
2022-12-27T03:20:59.890Z,1.40
2022-12-27T03:21:59.841Z,1.80
2022-12-27T03:22:59.819Z,1.30
2022-12-27T03:23:59.800Z,1.60
2022-12-27T03:24:59.770Z,1.60
2022-12-27T03:25:59.778Z,1.70
2022-12-27T03:26:59.798Z,1.60
2022-12-27T03:27:59.785Z,1.70
2022-12-27T03:28:59.765Z,1.70
2022-12-27T03:29:59.754Z,1.50
2022-12-27T03:30:59.767Z,1.10
2022-12-27T03:31:59.722Z,1.40
2022-12-27T03:32:59.703Z,1.70
2022-12-27T03:33:59.687Z,1.60
2022-12-27T03:34:59.722Z,1.40
2022-12-27T03:35:59.695Z,1.50
2022-12-27T03:36:59.643Z,1.40
2022-12-27T03:37:59.658Z,1.60
2022-12-27T03:38:59.650Z,1.50
2022-12-27T03:39:59.603Z,1.40
2022-12-27T03:40:59.646Z,1.40
2022-12-27T03:41:59.599Z,1.30
2022-12-27T03:42:59.589Z,1.50
2022-12-27T03:43:59.568Z,1.40
2022-12-27T03:44:59.597Z,1.30
2022-12-27T03:45:59.584Z,1.60
2022-12-27T03:46:59.575Z,1.60
2022-12-27T03:47:59.518Z,1.40
2022-12-27T03:48:59.508Z,1.50
2022-12-27T03:49:59.495Z,1.80
2022-12-27T03:50:59.569Z,1.70
2022-12-27T03:51:59.504Z,1.50
2022-12-27T03:52:59.470Z,1.60
2022-12-27T03:53:59.477Z,1.70
2022-12-27T03:54:59.440Z,1.50
2022-12-27T03:55:59.437Z,1.60
2022-12-27T03:56:59.445Z,1.70
2022-12-27T03:57:59.431Z,1.60
2022-12-27T03:58:59.415Z,1.40
2022-12-27T03:59:59.390Z,1.50
2022-12-27T04:00:59.370Z,1.70
2022-12-27T04:01:59.463Z,1.60
2022-12-27T04:02:59.507Z,1.80
2022-12-27T04:03:59.372Z,1.80
2022-12-27T04:04:59.319Z,1.40
2022-12-27T04:05:59.325Z,1.30
2022-12-27T04:06:59.315Z,1.80
2022-12-27T04:07:59.342Z,1.90
2022-12-27T04:08:59.351Z,1.60
2022-12-27T04:09:59.249Z,1.50
2022-12-27T04:10:59.265Z,1.20
2022-12-27T04:11:59.259Z,1.30
2022-12-27T04:12:59.270Z,1.40
2022-12-27T04:13:59.233Z,1.50
2022-12-27T04:14:59.252Z,1.10
2022-12-27T04:15:59.255Z,1.30
2022-12-27T04:16:59.208Z,1.20
2022-12-27T04:17:59.192Z,1.30
2022-12-27T04:18:59.156Z,1.30
2022-12-27T04:19:59.241Z,1.70
2022-12-27T04:20:59.155Z,1.50
2022-12-27T04:21:59.145Z,1.40
2022-12-27T04:22:59.120Z,1.70
2022-12-27T04:23:59.165Z,1.60
2022-12-27T04:24:59.089Z,1.30
2022-12-27T04:25:59.123Z,1.30
2022-12-27T04:26:59.061Z,1.40
2022-12-27T04:27:59.066Z,1.50
2022-12-27T04:28:59.074Z,1.60
2022-12-27T04:29:59.022Z,1.70
2022-12-27T04:30:59.069Z,2.00
2022-12-27T04:31:59.032Z,1.10
2022-12-27T04:32:59.023Z,1.20
2022-12-27T04:33:59.006Z,1.20
2022-12-27T04:34:58.967Z,1.10
2022-12-27T04:36:04.312Z,1.40
2022-12-27T04:36:59.964Z,1.60
2022-12-27T04:37:58.954Z,1.20
2022-12-27T04:38:58.968Z,1.70
2022-12-27T04:39:58.905Z,1.70
2022-12-27T04:40:58.923Z,1.60
2022-12-27T04:41:58.893Z,1.50
2022-12-27T04:42:58.933Z,1.20
2022-12-27T04:43:58.878Z,1.20
2022-12-27T04:44:58.874Z,1.40
2022-12-27T04:45:58.879Z,1.50
2022-12-27T04:46:58.849Z,1.80
2022-12-27T04:47:58.826Z,1.60
2022-12-27T04:48:58.824Z,1.50
2022-12-27T04:49:58.820Z,1.50
2022-12-27T04:50:58.832Z,2.00
2022-12-27T04:51:58.789Z,1.80
2022-12-27T04:52:58.765Z,1.30
2022-12-27T04:53:58.781Z,1.40
2022-12-27T04:54:58.768Z,1.90
2022-12-27T04:55:58.754Z,1.30
2022-12-27T04:56:58.707Z,1.50
2022-12-27T04:57:58.720Z,2.30
2022-12-27T04:58:58.700Z,1.30
2022-12-27T04:59:58.720Z,1.30
2022-12-27T05:00:58.711Z,1.50
2022-12-27T05:01:58.756Z,1.50
2022-12-27T05:02:58.699Z,1.40
2022-12-27T05:03:58.669Z,1.60
2022-12-27T05:04:58.672Z,1.50
2022-12-27T05:05:58.611Z,1.70
2022-12-27T05:06:58.646Z,1.50
2022-12-27T05:07:58.609Z,1.20
2022-12-27T05:08:58.646Z,1.10
2022-12-27T05:09:58.624Z,1.20
2022-12-27T05:10:58.574Z,1.60
2022-12-27T05:11:58.552Z,1.20
2022-12-27T05:12:58.564Z,1.60
2022-12-27T05:13:58.537Z,1.60
2022-12-27T05:14:58.544Z,2.00
2022-12-27T05:15:58.554Z,1.60
2022-12-27T05:16:58.510Z,2.50
2022-12-27T05:17:58.483Z,1.90
2022-12-27T05:18:58.459Z,2.60
2022-12-27T05:19:58.484Z,1.70
2022-12-27T05:20:58.460Z,1.60
2022-12-27T05:21:58.445Z,1.80
2022-12-27T05:22:58.481Z,2.00
2022-12-27T05:24:04.911Z,2.10
2022-12-27T05:24:59.408Z,2.10
2022-12-27T05:25:58.391Z,1.70
2022-12-27T05:26:58.371Z,1.90
2022-12-27T05:27:58.390Z,1.80
2022-12-27T05:28:58.386Z,1.90
2022-12-27T05:29:58.383Z,1.70
2022-12-27T05:30:58.403Z,2.00
2022-12-27T05:31:58.312Z,1.90
2022-12-27T05:32:58.354Z,2.00
2022-12-27T05:33:58.326Z,1.60
2022-12-27T05:34:58.370Z,2.00
2022-12-27T05:35:58.263Z,1.80
2022-12-27T05:36:58.268Z,1.60
2022-12-27T05:37:58.245Z,1.70
2022-12-27T05:38:58.292Z,1.80
2022-12-27T05:39:58.257Z,1.70
2022-12-27T05:40:58.277Z,1.40
2022-12-27T05:41:58.197Z,1.60
2022-12-27T05:42:58.208Z,2.00
2022-12-27T05:44:02.052Z,1.60
2022-12-27T05:44:59.241Z,1.50
2022-12-27T05:45:58.154Z,1.30
2022-12-27T05:46:58.194Z,1.70
2022-12-27T05:47:58.284Z,1.90
2022-12-27T05:48:58.128Z,1.60
2022-12-27T05:49:58.107Z,1.50
2022-12-27T05:50:58.095Z,1.50
2022-12-27T05:51:58.142Z,1.70
2022-12-27T05:52:58.075Z,1.50
2022-12-27T05:53:58.096Z,1.30
2022-12-27T05:54:58.081Z,1.50
2022-12-27T05:55:58.054Z,1.90
2022-12-27T05:56:58.036Z,1.60
2022-12-27T05:57:58.033Z,1.50
2022-12-27T05:58:58.020Z,1.40
2022-12-27T05:59:58.039Z,1.60
2022-12-27T06:00:57.992Z,1.70
2022-12-27T06:01:58.099Z,1.60
2022-12-27T06:02:58.147Z,1.50
2022-12-27T06:03:57.951Z,1.90
2022-12-27T06:04:57.984Z,1.50
2022-12-27T06:05:57.960Z,1.70
2022-12-27T06:06:57.918Z,1.40
2022-12-27T06:07:57.921Z,1.80
2022-12-27T06:08:57.890Z,1.50
2022-12-27T06:09:57.888Z,1.90
2022-12-27T06:10:57.923Z,1.70
2022-12-27T06:11:57.866Z,1.40
2022-12-27T06:12:57.864Z,1.20
2022-12-27T06:13:57.856Z,1.50
2022-12-27T06:14:57.833Z,1.20
2022-12-27T06:15:57.830Z,1.40
2022-12-27T06:16:57.827Z,1.60
2022-12-27T06:17:57.832Z,1.70
2022-12-27T06:18:57.770Z,1.40
2022-12-27T06:19:57.813Z,1.40
2022-12-27T06:20:57.752Z,1.50
2022-12-27T06:21:57.741Z,1.50
2022-12-27T06:22:57.722Z,1.40
2022-12-27T06:23:57.756Z,1.80
2022-12-27T06:24:57.729Z,1.60
2022-12-27T06:25:57.714Z,1.30
2022-12-27T06:26:57.673Z,1.30
2022-12-27T06:27:57.678Z,1.50
2022-12-27T06:28:57.675Z,1.50
2022-12-27T06:29:57.678Z,1.70
2022-12-27T06:30:57.668Z,1.50
2022-12-27T06:31:57.688Z,2.30
2022-12-27T06:32:57.617Z,1.30
2022-12-27T06:33:57.634Z,1.60
2022-12-27T06:34:57.584Z,2.00
2022-12-27T06:35:57.596Z,1.50
2022-12-27T06:36:57.555Z,1.30
2022-12-27T06:37:57.556Z,1.80
2022-12-27T06:38:57.543Z,1.60
2022-12-27T06:39:57.578Z,1.40
2022-12-27T06:40:57.538Z,1.80
2022-12-27T06:41:57.497Z,1.70
2022-12-27T06:42:57.496Z,1.70
2022-12-27T06:43:57.512Z,1.50
2022-12-27T06:44:57.481Z,1.60
2022-12-27T06:45:57.595Z,1.40
2022-12-27T06:46:57.459Z,1.40
2022-12-27T06:47:57.437Z,1.30
2022-12-27T06:48:57.432Z,1.80
2022-12-27T06:49:57.407Z,1.60
2022-12-27T06:50:57.415Z,1.60
2022-12-27T06:51:59.783Z,1.50
2022-12-27T06:52:57.396Z,1.40
2022-12-27T06:53:57.384Z,1.40
2022-12-27T06:54:57.364Z,1.40
2022-12-27T06:55:57.350Z,1.40
2022-12-27T06:56:57.387Z,1.50
2022-12-27T06:57:57.361Z,1.60
2022-12-27T06:58:57.321Z,1.60
2022-12-27T06:59:57.317Z,1.40
2022-12-27T07:00:57.330Z,1.70
2022-12-27T07:01:57.417Z,1.30
2022-12-27T07:02:57.362Z,1.20
2022-12-27T07:03:57.296Z,1.70
2022-12-27T07:04:57.239Z,1.30
2022-12-27T07:05:57.227Z,1.40
2022-12-27T07:06:57.271Z,2.00
2022-12-27T07:07:57.265Z,1.50
2022-12-27T07:08:57.224Z,1.60
2022-12-27T07:09:57.181Z,1.80
2022-12-27T07:10:57.203Z,1.50
2022-12-27T07:11:57.176Z,1.50
2022-12-27T07:12:57.176Z,1.70
2022-12-27T07:13:57.147Z,1.60
2022-12-27T07:14:57.168Z,1.60
2022-12-27T07:15:57.103Z,1.30
2022-12-27T07:16:57.172Z,1.60
2022-12-27T07:17:57.115Z,2.20
2022-12-27T07:18:57.114Z,1.60
2022-12-27T07:19:57.115Z,1.50
2022-12-27T07:20:57.101Z,1.90
2022-12-27T07:21:57.059Z,2.00
2022-12-27T07:22:57.034Z,1.80
2022-12-27T07:23:57.026Z,1.30
2022-12-27T07:24:57.020Z,1.60
2022-12-27T07:25:57.038Z,1.60
2022-12-27T07:26:57.030Z,1.90
2022-12-27T07:27:57.009Z,2.00
2022-12-27T07:28:56.970Z,1.80
2022-12-27T07:29:56.959Z,1.60
2022-12-27T07:30:56.989Z,1.70
2022-12-27T07:31:57.046Z,1.60
2022-12-27T07:32:56.943Z,1.60
2022-12-27T07:33:56.960Z,1.40
2022-12-27T07:37:20.251Z,1.80
2022-12-27T07:38:17.174Z,2.20
2022-12-27T07:39:17.127Z,2.30
2022-12-27T07:40:17.118Z,1.90
2022-12-27T07:41:17.117Z,1.60
2022-12-27T07:42:17.126Z,1.90
2022-12-27T07:45:40.881Z,2.30
2022-12-27T07:46:37.315Z,1.40
2022-12-27T07:47:37.343Z,1.40
2022-12-27T07:48:37.308Z,1.40
2022-12-27T07:49:37.303Z,1.40
2022-12-27T07:50:37.269Z,1.60
2022-12-27T07:51:37.277Z,1.80
2022-12-27T07:52:37.324Z,1.90
2022-12-27T07:53:37.256Z,1.70
2022-12-27T07:54:37.239Z,1.90
2022-12-27T07:55:37.213Z,1.60
2022-12-27T07:56:37.240Z,1.90
2022-12-27T07:57:37.211Z,1.70
2022-12-27T07:58:37.195Z,1.90
2022-12-27T07:59:37.176Z,2.10
2022-12-27T08:00:37.175Z,1.80
2022-12-27T08:01:37.260Z,1.60
2022-12-27T08:02:37.219Z,1.50
2022-12-27T08:03:37.178Z,1.80
2022-12-27T08:04:37.166Z,1.60
2022-12-27T08:05:37.120Z,1.30
2022-12-27T08:06:37.120Z,1.60
2022-12-27T08:07:37.123Z,1.70
2022-12-27T08:08:37.141Z,1.40
2022-12-27T08:09:37.077Z,1.40
2022-12-27T08:10:37.053Z,1.50
2022-12-27T08:11:37.072Z,1.70
2022-12-27T08:12:37.077Z,1.70
2022-12-27T08:13:37.061Z,1.10
2022-12-27T08:14:37.040Z,1.60
2022-12-27T08:15:37.006Z,1.40
2022-12-27T08:16:37.045Z,1.40
2022-12-27T08:17:37.008Z,1.30
2022-12-27T08:18:36.992Z,1.40
2022-12-27T08:19:37.000Z,2.00
2022-12-27T08:20:36.946Z,1.70
2022-12-27T08:21:36.964Z,1.30
2022-12-27T08:22:36.949Z,1.50
2022-12-27T08:23:36.928Z,1.60
2022-12-27T08:24:36.914Z,1.60
2022-12-27T08:25:36.909Z,1.40
2022-12-27T08:26:36.903Z,1.60
2022-12-27T08:27:36.862Z,1.70
2022-12-27T08:28:36.960Z,1.60
2022-12-27T08:29:36.862Z,1.30
2022-12-27T08:30:36.914Z,1.30
2022-12-27T08:31:36.797Z,1.40
2022-12-27T08:32:36.813Z,1.70
2022-12-27T08:33:36.802Z,1.70
2022-12-27T08:34:36.839Z,1.60
2022-12-27T08:35:54.026Z,1.80
2022-12-27T08:36:54.558Z,1.10
2022-12-27T08:37:37.730Z,1.40
2022-12-27T08:38:36.719Z,1.40
2022-12-27T08:39:36.732Z,1.70
2022-12-27T08:40:36.774Z,1.30
2022-12-27T08:41:36.702Z,1.40
2022-12-27T08:42:36.691Z,1.70
2022-12-27T08:43:36.660Z,1.50
2022-12-27T08:44:36.722Z,1.90
2022-12-27T08:51:00.254Z,2.10
2022-12-27T08:52:00.202Z,1.80
2022-12-27T08:53:00.177Z,1.50
2022-12-27T08:54:00.176Z,1.50
2022-12-27T08:55:00.194Z,1.40
2022-12-27T08:56:00.168Z,1.50
2022-12-27T08:57:00.146Z,1.60
2022-12-27T08:58:00.143Z,1.90
2022-12-27T08:59:00.156Z,1.70
2022-12-27T09:00:00.137Z,2.30
2022-12-27T09:01:00.158Z,2.10
2022-12-27T09:02:00.216Z,1.60
2022-12-27T09:03:00.165Z,1.70
2022-12-27T09:04:00.107Z,1.60
2022-12-27T09:05:00.116Z,1.50
2022-12-27T09:06:00.047Z,1.80
2022-12-27T09:07:00.057Z,1.70
2022-12-27T09:08:00.022Z,2.00
2022-12-27T09:09:00.036Z,2.10
2022-12-27T09:10:00.009Z,2.00
2022-12-27T09:11:00.008Z,2.00
2022-12-27T09:12:03.113Z,2.10
2022-12-27T09:13:00.992Z,2.30
2022-12-27T09:13:59.935Z,2.10
2022-12-27T09:14:59.944Z,2.10
2022-12-27T09:15:59.943Z,1.80
2022-12-27T09:16:59.987Z,1.90
2022-12-27T09:17:59.898Z,1.60
2022-12-27T09:18:59.913Z,1.60
2022-12-27T09:19:59.877Z,1.60
2022-12-27T09:20:59.856Z,1.70
2022-12-27T09:21:59.879Z,1.40
2022-12-27T09:22:59.826Z,1.50
2022-12-27T09:23:59.845Z,1.00
2022-12-27T09:24:59.882Z,1.40
2022-12-27T09:25:59.797Z,1.50
2022-12-27T09:26:59.777Z,1.60
2022-12-27T09:27:59.804Z,1.50
2022-12-27T09:28:59.745Z,1.30
2022-12-27T09:29:59.747Z,1.60
2022-12-27T09:30:59.819Z,1.50
2022-12-27T09:31:59.750Z,1.40
2022-12-27T09:32:59.752Z,1.40
2022-12-27T09:33:59.717Z,1.30
2022-12-27T09:34:59.687Z,1.40
2022-12-27T09:35:59.685Z,1.30
2022-12-27T09:36:59.702Z,1.30
2022-12-27T09:37:59.665Z,1.20
2022-12-27T09:38:59.706Z,1.20
2022-12-27T09:39:59.681Z,1.70
2022-12-27T09:40:59.619Z,1.90
2022-12-27T09:43:16.264Z,1.70
2022-12-27T09:44:00.633Z,1.60
2022-12-27T09:44:59.595Z,1.20
2022-12-27T09:45:59.637Z,1.30
2022-12-27T09:46:59.569Z,1.40
2022-12-27T09:47:59.602Z,1.40
2022-12-27T09:48:59.553Z,1.50
2022-12-27T09:49:59.562Z,1.60
2022-12-27T09:50:59.518Z,1.30
2022-12-27T09:51:59.527Z,1.20
2022-12-27T09:52:59.527Z,1.40
2022-12-27T09:53:59.498Z,1.30
2022-12-27T09:55:04.642Z,1.40
2022-12-27T09:56:00.466Z,1.30
2022-12-27T09:57:19.362Z,1.60
2022-12-27T09:58:00.432Z,1.60
2022-12-27T09:58:59.479Z,1.40
2022-12-27T09:59:59.414Z,1.40
2022-12-27T10:00:59.435Z,1.80
2022-12-27T10:01:59.529Z,1.60
2022-12-27T10:02:59.448Z,1.60
2022-12-27T10:03:59.381Z,2.50
2022-12-27T10:06:00.440Z,1.50
2022-12-27T10:06:59.353Z,1.70
2022-12-27T10:07:59.338Z,1.50
2022-12-27T10:08:59.351Z,1.70
2022-12-27T10:09:59.291Z,1.50
2022-12-27T10:10:59.275Z,2.10
2022-12-27T10:11:59.295Z,1.50
2022-12-27T10:12:59.256Z,1.50
2022-12-27T10:13:59.310Z,1.70
2022-12-27T10:14:59.260Z,1.90
2022-12-27T10:15:59.239Z,1.50
2022-12-27T10:16:59.207Z,1.70
2022-12-27T10:17:59.214Z,1.30
2022-12-27T10:18:59.237Z,1.50
2022-12-27T10:19:59.218Z,1.40
2022-12-27T10:20:59.210Z,1.50
2022-12-27T10:21:59.172Z,1.40
2022-12-27T10:23:05.865Z,1.40
2022-12-27T10:24:00.175Z,1.50
2022-12-27T10:24:59.159Z,1.00
2022-12-27T10:25:59.162Z,1.40
2022-12-27T10:26:59.092Z,1.90
2022-12-27T10:27:59.084Z,1.70
2022-12-27T10:28:59.070Z,1.30
2022-12-27T10:29:59.162Z,1.60
2022-12-27T10:30:59.181Z,1.70
2022-12-27T10:31:59.044Z,1.60
2022-12-27T10:32:59.058Z,1.40
2022-12-27T10:33:59.013Z,1.80
2022-12-27T10:34:59.031Z,1.70
2022-12-27T10:35:59.027Z,1.40
2022-12-27T10:36:59.007Z,1.50
2022-12-27T10:37:58.980Z,1.50
2022-12-27T10:38:58.981Z,1.70
2022-12-27T10:39:59.002Z,1.70
2022-12-27T10:40:58.932Z,1.50
2022-12-27T10:41:58.940Z,1.40
2022-12-27T10:42:58.979Z,1.40
2022-12-27T10:43:58.963Z,1.40
2022-12-27T10:44:58.937Z,1.50
2022-12-27T10:45:58.863Z,1.50
2022-12-27T10:46:58.950Z,1.20
2022-12-27T10:47:58.866Z,1.20
2022-12-27T10:50:00.025Z,1.20
2022-12-27T10:50:58.814Z,1.50
2022-12-27T10:51:58.827Z,1.50
2022-12-27T10:52:58.795Z,1.60
2022-12-27T10:53:58.819Z,1.40
2022-12-27T10:54:58.793Z,1.30
2022-12-27T10:55:58.795Z,1.60
2022-12-27T10:56:58.745Z,1.50
2022-12-27T10:57:58.771Z,1.40
2022-12-27T10:58:59.306Z,1.10
2022-12-27T10:59:58.716Z,1.10
2022-12-27T11:00:58.924Z,1.20
2022-12-27T11:01:58.776Z,1.10
2022-12-27T11:02:58.764Z,1.20
2022-12-27T11:03:58.703Z,1.10
2022-12-27T11:04:58.658Z,1.50
2022-12-27T11:05:58.641Z,1.20
2022-12-27T11:06:58.707Z,1.20
2022-12-27T11:07:58.621Z,1.20
2022-12-27T11:08:58.651Z,1.20
2022-12-27T11:09:58.600Z,1.10
2022-12-27T11:10:58.626Z,1.00
2022-12-27T11:11:58.628Z,1.20
2022-12-27T11:12:58.624Z,1.20
2022-12-27T11:13:58.550Z,1.00
2022-12-27T11:14:58.593Z,1.30
2022-12-27T11:15:59.220Z,0.80
2022-12-27T11:16:58.525Z,1.20
2022-12-27T11:17:58.502Z,1.10
2022-12-27T11:18:58.527Z,1.10
2022-12-27T11:19:58.498Z,1.10
2022-12-27T11:20:58.540Z,1.20
2022-12-27T11:21:58.507Z,1.00
2022-12-27T11:22:58.503Z,1.30
2022-12-27T11:23:58.476Z,1.30
2022-12-27T11:24:58.451Z,1.00
2022-12-27T11:25:58.454Z,1.10
2022-12-27T11:26:58.424Z,0.80
2022-12-27T11:27:58.385Z,1.20
2022-12-27T11:28:58.380Z,1.00
2022-12-27T11:29:58.364Z,1.10
2022-12-27T11:30:58.597Z,1.10
2022-12-27T11:31:58.405Z,1.30
2022-12-27T11:32:58.375Z,0.90
2022-12-27T11:33:58.353Z,0.90
2022-12-27T11:34:58.346Z,1.20
2022-12-27T11:35:58.320Z,1.20
2022-12-27T11:36:58.325Z,1.10
2022-12-27T11:37:58.296Z,1.20
2022-12-27T11:38:58.284Z,1.30
2022-12-27T11:39:58.285Z,1.50
2022-12-27T11:40:58.261Z,1.20
2022-12-27T11:41:58.289Z,1.30
2022-12-27T11:42:58.225Z,1.20
2022-12-27T11:43:58.206Z,1.20
2022-12-27T11:44:58.207Z,1.20
2022-12-27T11:45:58.218Z,2.20
2022-12-27T11:46:59.538Z,0.90
2022-12-27T11:47:58.215Z,1.80
2022-12-27T11:48:58.157Z,2.50
2022-12-27T11:49:58.145Z,1.20
2022-12-27T11:50:58.123Z,0.90
2022-12-27T11:51:58.105Z,1.10
2022-12-27T11:52:58.132Z,1.00
2022-12-27T11:53:58.119Z,1.00
2022-12-27T11:54:58.085Z,1.10
2022-12-27T11:55:58.070Z,1.10
2022-12-27T11:56:58.069Z,1.30
2022-12-27T11:57:58.088Z,1.20
2022-12-27T11:58:58.060Z,1.30
2022-12-27T11:59:58.033Z,1.10
2022-12-27T12:01:02.077Z,0.80
2022-12-27T12:01:59.071Z,1.20
2022-12-27T12:02:58.149Z,1.20
2022-12-27T12:03:58.026Z,1.20
2022-12-27T12:04:57.958Z,1.10
2022-12-27T12:05:57.984Z,0.90
2022-12-27T12:06:57.932Z,0.80
2022-12-27T12:07:57.962Z,1.10
2022-12-27T12:08:57.951Z,1.10
2022-12-27T12:09:57.937Z,1.20
2022-12-27T12:10:57.903Z,1.10
2022-12-27T12:11:57.921Z,1.50
2022-12-27T12:12:57.886Z,1.40
2022-12-27T12:13:57.876Z,1.00
2022-12-27T12:14:57.913Z,1.00
2022-12-27T12:15:57.855Z,1.20
2022-12-27T12:16:57.842Z,1.10
2022-12-27T12:17:57.840Z,1.00
2022-12-27T12:18:57.805Z,0.90
2022-12-27T12:19:57.816Z,1.30
2022-12-27T12:20:57.837Z,1.20
2022-12-27T12:21:57.776Z,1.20
2022-12-27T12:22:57.767Z,1.10
2022-12-27T12:23:57.735Z,1.20
2022-12-27T12:24:57.808Z,1.20
2022-12-27T12:25:57.771Z,1.10
2022-12-27T12:26:57.740Z,1.10
2022-12-27T12:27:57.744Z,1.10
2022-12-27T12:28:59.672Z,1.30
2022-12-27T12:29:57.708Z,1.30
2022-12-27T12:30:57.728Z,1.00
2022-12-27T12:31:57.728Z,1.10
2022-12-27T12:32:57.646Z,1.10
2022-12-27T12:33:57.649Z,0.80
2022-12-27T12:34:57.611Z,1.10
2022-12-27T12:35:57.612Z,1.10
2022-12-27T12:36:57.640Z,1.20
2022-12-27T12:37:57.623Z,1.10
2022-12-27T12:38:57.580Z,1.40
2022-12-27T12:39:57.577Z,1.30
2022-12-27T12:40:57.550Z,1.20
2022-12-27T12:41:57.562Z,1.20
2022-12-27T12:42:57.521Z,1.30
2022-12-27T12:43:57.523Z,1.10
2022-12-27T12:44:57.528Z,1.20
2022-12-27T12:45:57.569Z,1.10
2022-12-27T12:46:57.467Z,1.10
2022-12-27T12:47:57.492Z,1.30
2022-12-27T12:48:57.478Z,1.40
2022-12-27T12:49:57.465Z,1.00
2022-12-27T12:50:57.462Z,1.20
2022-12-27T12:51:57.423Z,1.40
2022-12-27T12:52:57.403Z,1.00
2022-12-27T12:53:57.424Z,1.10
2022-12-27T12:54:57.402Z,1.10
2022-12-27T12:55:57.408Z,1.00
2022-12-27T12:56:57.409Z,1.00
2022-12-27T12:57:57.369Z,1.30
2022-12-27T12:58:57.332Z,1.20
2022-12-27T12:59:57.359Z,1.40
2022-12-27T13:00:57.366Z,1.20
2022-12-27T13:01:57.535Z,0.80
2022-12-27T13:02:57.395Z,0.90
2022-12-27T13:03:57.299Z,1.00
2022-12-27T13:04:57.454Z,0.90
2022-12-27T13:05:57.273Z,1.10
2022-12-27T13:06:57.303Z,1.00
2022-12-27T13:07:57.238Z,1.40
2022-12-27T13:08:57.226Z,1.00
2022-12-27T13:09:57.217Z,1.10
2022-12-27T13:10:57.217Z,1.30
2022-12-27T13:11:57.191Z,1.10
2022-12-27T13:12:57.204Z,1.40
2022-12-27T13:13:57.163Z,0.90
2022-12-27T13:14:57.204Z,1.20
2022-12-27T13:15:57.172Z,0.90
2022-12-27T13:16:57.165Z,1.20
2022-12-27T13:17:57.130Z,0.90
2022-12-27T13:18:57.154Z,0.90
2022-12-27T13:19:57.104Z,1.30
2022-12-27T13:20:57.113Z,1.10
2022-12-27T13:21:57.083Z,1.40
2022-12-27T13:22:57.049Z,1.30
2022-12-27T13:23:57.053Z,1.00
2022-12-27T13:24:57.102Z,1.20
2022-12-27T13:25:57.035Z,1.20
2022-12-27T13:26:57.001Z,1.20
2022-12-27T13:27:57.032Z,1.20
2022-12-27T13:28:56.991Z,1.40
2022-12-27T13:30:01.642Z,1.40
2022-12-27T13:30:58.007Z,1.30